createdAt,value
2024-01-25T00:02:04.750Z,8.23
2024-01-25T00:04:55.001Z,8.22
2024-01-25T00:07:51.256Z,8.24
2024-01-25T00:10:41.735Z,8.14
2024-01-25T00:13:31.974Z,8.12
2024-01-25T00:16:22.230Z,8.13
2024-01-25T00:19:15.010Z,8.17
2024-01-25T00:22:05.283Z,8.14
2024-01-25T00:24:55.474Z,8.08
2024-01-25T00:27:46.276Z,8.11
2024-01-25T00:30:36.582Z,8.04
2024-01-25T00:33:26.769Z,8.01
2024-01-25T00:36:20.798Z,7.95
2024-01-25T00:39:11.861Z,8.00
2024-01-25T00:42:07.475Z,8.06
2024-01-25T00:44:58.147Z,7.97
2024-01-25T00:47:49.116Z,7.98
2024-01-25T00:50:40.005Z,8.06
2024-01-25T00:53:34.073Z,8.08
2024-01-25T00:56:24.995Z,8.03
2024-01-25T00:59:15.665Z,8.01
2024-01-25T01:02:09.468Z,7.98
2024-01-25T01:05:00.764Z,7.99
2024-01-25T01:07:51.997Z,8.05
2024-01-25T01:10:44.739Z,8.04
2024-01-25T01:13:34.793Z,8.02
2024-01-25T01:16:25.268Z,7.97
2024-01-25T01:19:15.734Z,7.92
2024-01-25T01:22:06.154Z,7.83
2024-01-25T01:24:56.364Z,7.93
2024-01-25T01:27:49.172Z,7.90
2024-01-25T01:30:42.841Z,7.76
2024-01-25T01:33:33.184Z,7.86
2024-01-25T01:36:23.928Z,7.74
2024-01-25T01:39:14.428Z,7.79
2024-01-25T01:42:04.674Z,7.81
2024-01-25T01:44:57.851Z,7.82
2024-01-25T01:47:48.142Z,7.75
2024-01-25T01:50:38.666Z,7.78
2024-01-25T01:53:28.897Z,7.85
2024-01-25T01:56:19.521Z,7.77
2024-01-25T01:59:13.017Z,7.79
2024-01-25T02:02:05.904Z,7.83
2024-01-25T02:04:56.144Z,7.61
2024-01-25T02:07:46.771Z,7.56
2024-01-25T02:10:36.895Z,7.57
2024-01-25T02:13:27.544Z,7.59
2024-01-25T02:16:19.255Z,7.56
2024-01-25T02:19:12.217Z,7.57
2024-01-25T02:22:02.978Z,7.64
2024-01-25T02:24:55.887Z,7.56
2024-01-25T02:27:46.375Z,7.49
2024-01-25T02:30:36.487Z,7.55
2024-01-25T02:33:26.806Z,7.47
2024-01-25T02:36:16.926Z,7.51
2024-01-25T02:39:07.346Z,7.43
2024-01-25T02:41:59.994Z,7.50
2024-01-25T02:44:50.475Z,7.47
2024-01-25T02:47:42.149Z,7.40
2024-01-25T02:50:32.409Z,7.35
2024-01-25T02:53:22.589Z,7.42
2024-01-25T02:56:12.687Z,7.41
2024-01-25T02:59:05.643Z,7.29
2024-01-25T03:01:57.349Z,7.32
2024-01-25T03:04:47.770Z,7.18
2024-01-25T03:07:38.074Z,7.18
2024-01-25T03:10:29.026Z,7.20
2024-01-25T03:13:19.504Z,7.19
2024-01-25T03:16:12.430Z,7.19
2024-01-25T03:19:03.578Z,7.11
2024-01-25T03:21:53.920Z,7.16
2024-01-25T03:24:44.160Z,7.18
2024-01-25T03:27:34.354Z,7.06
2024-01-25T03:30:24.442Z,7.06
2024-01-25T03:33:17.265Z,7.07
2024-01-25T03:36:08.152Z,7.01
2024-01-25T03:38:58.508Z,7.04
2024-01-25T03:41:48.570Z,7.10
2024-01-25T03:44:38.753Z,7.18
2024-01-25T03:47:28.931Z,7.20
2024-01-25T03:50:21.732Z,7.30
2024-01-25T03:53:11.838Z,7.25
2024-01-25T03:56:01.941Z,7.25
2024-01-25T03:58:52.136Z,7.26
2024-01-25T04:01:46.297Z,7.39
2024-01-25T04:04:37.051Z,7.32
2024-01-25T04:07:29.868Z,7.36
2024-01-25T04:10:20.216Z,7.28
2024-01-25T04:13:10.475Z,7.31
2024-01-25T04:16:00.757Z,7.29
2024-01-25T04:18:51.110Z,7.34
2024-01-25T04:21:41.745Z,7.34
2024-01-25T04:24:35.061Z,7.39
2024-01-25T04:27:25.226Z,7.46
2024-01-25T04:30:15.611Z,7.43
2024-01-25T04:33:06.689Z,7.40
2024-01-25T04:35:57.239Z,7.37
2024-01-25T04:38:47.403Z,7.41
2024-01-25T04:41:40.089Z,7.31
2024-01-25T04:44:30.217Z,7.35
2024-01-25T04:47:20.533Z,7.40
2024-01-25T04:50:11.759Z,7.35
2024-01-25T04:53:03.275Z,7.35
2024-01-25T04:55:53.631Z,7.42
2024-01-25T04:58:46.301Z,7.45
2024-01-25T05:01:36.506Z,7.36
2024-01-25T05:04:26.648Z,7.40
2024-01-25T05:07:17.237Z,7.36
2024-01-25T05:10:08.275Z,7.35
2024-01-25T05:12:58.415Z,7.41
2024-01-25T05:15:51.496Z,7.28
2024-01-25T05:18:41.947Z,7.35
2024-01-25T05:21:32.451Z,7.29
2024-01-25T05:24:25.300Z,7.26
2024-01-25T05:27:15.388Z,7.31
2024-01-25T05:30:06.213Z,7.33
2024-01-25T05:32:59.213Z,7.30
2024-01-25T05:35:49.382Z,7.20
2024-01-25T05:38:39.691Z,7.26
2024-01-25T05:41:29.783Z,7.27
2024-01-25T05:44:19.894Z,7.15
2024-01-25T05:47:10.376Z,7.08
2024-01-25T05:50:03.740Z,6.96
2024-01-25T05:52:53.906Z,7.03
2024-01-25T05:55:44.165Z,7.00
2024-01-25T05:58:34.718Z,7.08
2024-01-25T06:01:24.928Z,7.07
2024-01-25T06:04:15.364Z,7.06
2024-01-25T06:07:08.315Z,7.06
2024-01-25T06:09:58.600Z,7.07
2024-01-25T06:12:48.809Z,6.97
2024-01-25T06:15:40.010Z,7.00
2024-01-25T06:18:30.805Z,7.07
2024-01-25T06:21:20.937Z,7.03
2024-01-25T06:24:13.647Z,7.01
2024-01-25T06:27:03.821Z,7.00
2024-01-25T06:29:54.074Z,6.99
2024-01-25T06:32:44.277Z,6.99
2024-01-25T06:35:35.300Z,7.01
2024-01-25T06:38:25.442Z,6.94
2024-01-25T06:41:18.974Z,6.84
2024-01-25T06:44:09.047Z,6.88
2024-01-25T06:46:59.126Z,6.77
2024-01-25T06:49:53.113Z,6.84
2024-01-25T06:52:43.577Z,6.99
2024-01-25T06:55:33.706Z,6.85
2024-01-25T06:58:26.437Z,6.85
2024-01-25T07:01:16.970Z,7.04
2024-01-25T07:04:07.979Z,6.86
2024-01-25T07:07:00.269Z,6.94
2024-01-25T07:09:50.496Z,6.74
2024-01-25T07:12:40.642Z,6.72
2024-01-25T07:15:33.685Z,6.78
2024-01-25T07:18:25.953Z,6.80
2024-01-25T07:21:16.251Z,6.74
2024-01-25T07:24:07.963Z,6.63
2024-01-25T07:26:58.500Z,6.69
2024-01-25T07:29:48.842Z,6.79
2024-01-25T07:32:43.624Z,6.69
2024-01-25T07:35:33.876Z,6.59
2024-01-25T07:38:24.143Z,6.66
2024-01-25T07:41:14.240Z,6.80
2024-01-25T07:44:04.344Z,6.88
2024-01-25T07:46:54.423Z,6.69
2024-01-25T07:49:44.765Z,6.74
2024-01-25T07:52:34.947Z,6.73
2024-01-25T07:55:25.100Z,6.89
2024-01-25T07:58:15.324Z,6.82
2024-01-25T08:01:08.139Z,6.87
2024-01-25T08:03:58.403Z,6.72
2024-01-25T08:06:51.447Z,6.89
2024-01-25T08:09:41.905Z,6.84
2024-01-25T08:12:32.011Z,6.79
2024-01-25T08:15:22.124Z,6.75
2024-01-25T08:18:12.387Z,6.89
2024-01-25T08:21:02.706Z,6.78
2024-01-25T08:23:55.437Z,6.97
2024-01-25T08:26:45.811Z,6.98
2024-01-25T08:29:35.889Z,6.85
2024-01-25T08:32:25.992Z,6.92
2024-01-25T08:35:16.709Z,6.86
2024-01-25T08:38:07.219Z,6.99
2024-01-25T08:40:59.886Z,6.92
2024-01-25T08:44:08.358Z,7.10
2024-01-25T08:47:17.204Z,6.92
2024-01-25T08:50:12.012Z,7.01
2024-01-25T08:53:02.206Z,7.28
2024-01-25T08:55:52.345Z,7.12
2024-01-25T08:58:45.017Z,6.82
2024-01-25T09:01:35.588Z,7.04
2024-01-25T09:04:26.356Z,7.35
2024-01-25T09:07:16.763Z,7.23
2024-01-25T09:10:08.503Z,7.24
2024-01-25T09:12:58.659Z,7.27
2024-01-25T09:15:51.410Z,7.32
2024-01-25T09:18:41.727Z,7.36
2024-01-25T09:21:32.067Z,7.44
2024-01-25T09:24:22.441Z,7.49
2024-01-25T09:27:12.579Z,7.49
2024-01-25T09:30:02.723Z,7.58
2024-01-25T09:32:55.721Z,7.45
2024-01-25T09:35:48.376Z,7.47
2024-01-25T09:38:39.460Z,7.51
2024-01-25T09:41:29.653Z,7.69
2024-01-25T09:44:20.317Z,7.40
2024-01-25T09:47:10.700Z,7.68
2024-01-25T09:50:04.192Z,7.80
2024-01-25T09:53:01.165Z,7.69
2024-01-25T09:55:53.976Z,7.66
2024-01-25T09:58:47.160Z,7.78
2024-01-25T10:01:37.562Z,7.94
2024-01-25T10:04:27.918Z,7.84
2024-01-25T10:07:21.534Z,7.64
2024-01-25T10:10:13.154Z,7.74
2024-01-25T10:13:03.528Z,7.86
2024-01-25T10:15:54.078Z,7.73
2024-01-25T10:18:45.374Z,7.80
2024-01-25T10:21:37.375Z,7.74
2024-01-25T10:24:31.881Z,7.93
2024-01-25T10:27:22.549Z,7.86
2024-01-25T10:30:15.041Z,7.77
2024-01-25T10:33:05.985Z,8.09
2024-01-25T10:36:03.279Z,7.98
2024-01-25T10:38:54.121Z,7.74
2024-01-25T10:41:51.575Z,7.86
2024-01-25T10:44:43.899Z,7.88
2024-01-25T10:47:36.815Z,7.62
2024-01-25T10:50:27.533Z,7.79
2024-01-25T10:53:19.020Z,7.74
2024-01-25T10:56:10.233Z,7.93
2024-01-25T10:59:03.730Z,7.94
2024-01-25T11:01:53.968Z,8.07
2024-01-25T11:04:44.277Z,8.09
2024-01-25T11:07:45.334Z,8.19
2024-01-25T11:10:41.572Z,8.03
2024-01-25T11:13:31.727Z,7.93
2024-01-25T11:16:32.830Z,8.00
2024-01-25T11:19:25.799Z,8.18
2024-01-25T11:22:16.148Z,8.07
2024-01-25T11:25:18.538Z,8.02
2024-01-25T11:28:09.896Z,7.80
2024-01-25T11:31:00.247Z,8.08
2024-01-25T11:33:53.774Z,8.25
2024-01-25T11:36:44.229Z,8.14
2024-01-25T11:39:36.274Z,8.04
2024-01-25T11:42:26.460Z,8.00
2024-01-25T11:45:17.260Z,8.14
2024-01-25T11:48:07.932Z,8.33
2024-01-25T11:51:02.397Z,8.34
2024-01-25T11:53:52.565Z,8.35
2024-01-25T11:56:45.073Z,8.45
2024-01-25T11:59:35.680Z,8.39
2024-01-25T12:02:26.077Z,8.51
2024-01-25T12:05:17.117Z,8.62
2024-01-25T12:08:17.460Z,8.55
2024-01-25T12:11:09.125Z,8.54
2024-01-25T12:13:59.205Z,8.62
2024-01-25T12:16:49.495Z,8.64
2024-01-25T12:19:39.912Z,8.48
2024-01-25T12:22:33.837Z,8.43
2024-01-25T12:25:29.142Z,8.39
2024-01-25T12:28:19.294Z,8.65
2024-01-25T12:31:10.629Z,8.58
2024-01-25T12:34:01.444Z,8.50
2024-01-25T12:36:53.895Z,8.65
2024-01-25T12:39:44.135Z,8.42
2024-01-25T12:42:37.298Z,8.32
2024-01-25T12:45:27.745Z,8.30
2024-01-25T12:48:17.941Z,8.18
2024-01-25T12:51:08.461Z,8.16
2024-01-25T12:53:58.718Z,7.95
2024-01-25T12:56:49.025Z,7.83
2024-01-25T12:59:42.156Z,7.78
2024-01-25T13:02:32.618Z,7.84
2024-01-25T13:05:23.718Z,7.95
2024-01-25T13:08:14.066Z,8.01
2024-01-25T13:11:04.288Z,7.96
2024-01-25T13:13:54.754Z,7.80
2024-01-25T13:16:47.484Z,7.76
2024-01-25T13:19:37.717Z,7.90
2024-01-25T13:22:28.581Z,7.89
2024-01-25T13:25:18.739Z,7.88
2024-01-25T13:28:09.581Z,8.06
2024-01-25T13:31:01.265Z,8.14
2024-01-25T13:33:54.250Z,8.23
2024-01-25T13:36:44.513Z,8.52
2024-01-25T13:39:34.657Z,8.29
2024-01-25T13:42:24.834Z,8.16
2024-01-25T13:45:15.136Z,8.37
2024-01-25T13:48:05.364Z,8.66
2024-01-25T13:50:58.049Z,8.71
2024-01-25T13:53:50.663Z,8.70
2024-01-25T13:56:41.895Z,8.63
2024-01-25T13:59:32.000Z,8.55
2024-01-25T14:02:22.100Z,8.63
2024-01-25T14:05:12.432Z,8.68
2024-01-25T14:08:05.186Z,8.51
2024-01-25T14:10:55.362Z,8.79
2024-01-25T14:13:46.365Z,8.79
2024-01-25T14:16:36.529Z,9.03
2024-01-25T14:19:26.858Z,8.89
2024-01-25T14:22:28.270Z,8.99
2024-01-25T14:25:24.418Z,8.91
2024-01-25T14:28:14.769Z,8.98
2024-01-25T14:31:04.933Z,9.05
2024-01-25T14:33:55.455Z,8.86
2024-01-25T14:36:45.699Z,8.84
2024-01-25T14:39:35.904Z,8.96
2024-01-25T14:42:28.667Z,9.01
2024-01-25T14:45:19.282Z,8.90
2024-01-25T14:48:09.685Z,8.88
2024-01-25T14:50:59.816Z,8.56
2024-01-25T14:53:49.961Z,8.53
2024-01-25T14:56:41.281Z,8.40
2024-01-25T14:59:33.964Z,8.45
2024-01-25T15:02:24.208Z,8.18
2024-01-25T15:05:14.334Z,7.95
2024-01-25T15:08:04.455Z,8.26
2024-01-25T15:10:55.251Z,7.99
2024-01-25T15:13:45.348Z,8.12
2024-01-25T15:16:41.490Z,8.04
2024-01-25T15:19:31.768Z,7.85
2024-01-25T15:22:24.264Z,7.90
2024-01-25T15:25:14.591Z,7.60
2024-01-25T15:28:04.941Z,7.79
2024-01-25T15:30:55.198Z,7.66
2024-01-25T15:33:48.051Z,7.78
2024-01-25T15:36:38.350Z,7.75
2024-01-25T15:39:28.648Z,7.60
2024-01-25T15:42:18.761Z,7.64
2024-01-25T15:45:09.969Z,7.69
2024-01-25T15:48:00.101Z,7.65
2024-01-25T15:50:52.768Z,7.63
2024-01-25T15:53:42.906Z,7.50
2024-01-25T15:56:32.996Z,7.57
2024-01-25T15:59:23.129Z,7.46
2024-01-25T16:02:13.271Z,7.77
2024-01-25T16:05:03.546Z,8.02
2024-01-25T16:07:56.282Z,7.71
2024-01-25T16:10:46.403Z,7.96
2024-01-25T16:13:36.512Z,7.65
2024-01-25T16:16:26.634Z,7.67
2024-01-25T16:19:16.765Z,7.62
2024-01-25T16:22:07.360Z,7.57
2024-01-25T16:25:00.082Z,7.30
2024-01-25T16:27:50.274Z,7.40
2024-01-25T16:30:40.448Z,7.24
2024-01-25T16:33:31.657Z,7.36
2024-01-25T16:36:21.821Z,7.11
2024-01-25T16:39:11.957Z,7.27
2024-01-25T16:42:06.698Z,7.13
2024-01-25T16:44:56.836Z,7.16
2024-01-25T16:47:46.965Z,6.93
2024-01-25T16:50:37.437Z,7.17
2024-01-25T16:53:27.534Z,6.88
2024-01-25T16:56:17.616Z,6.87
2024-01-25T16:59:10.301Z,6.82
2024-01-25T17:02:00.479Z,7.03
2024-01-25T17:04:50.747Z,6.85
2024-01-25T17:07:40.988Z,6.97
2024-01-25T17:10:31.268Z,6.95
2024-01-25T17:13:21.683Z,6.84
2024-01-25T17:16:14.374Z,6.53
2024-01-25T17:19:04.794Z,6.77
2024-01-25T17:21:55.021Z,6.58
2024-01-25T17:24:45.199Z,7.39
2024-01-25T17:27:35.299Z,7.71
2024-01-25T17:30:25.740Z,7.11
2024-01-25T17:33:18.636Z,6.64
2024-01-25T17:36:09.663Z,6.68
2024-01-25T17:38:59.778Z,6.79
2024-01-25T17:41:49.867Z,6.86
2024-01-25T17:44:40.429Z,6.38
2024-01-25T17:47:30.975Z,6.31
2024-01-25T17:50:24.010Z,6.16
2024-01-25T17:53:15.397Z,6.18
2024-01-25T17:56:06.217Z,6.13
2024-01-25T17:58:57.179Z,6.04
2024-01-25T18:01:47.381Z,6.19
2024-01-25T18:04:38.660Z,6.14
2024-01-25T18:07:31.579Z,6.24
2024-01-25T18:10:21.953Z,6.38
2024-01-25T18:13:12.124Z,6.07
2024-01-25T18:16:02.527Z,6.48
2024-01-25T18:18:53.173Z,6.66
2024-01-25T18:21:45.534Z,6.27
2024-01-25T18:24:38.379Z,7.06
2024-01-25T18:27:28.776Z,7.18
2024-01-25T18:30:19.546Z,6.95
2024-01-25T18:33:09.861Z,6.57
2024-01-25T18:36:00.048Z,6.56
2024-01-25T18:38:51.762Z,5.75
2024-01-25T18:41:44.441Z,5.89
2024-01-25T18:44:35.449Z,5.70
2024-01-25T18:47:26.587Z,6.38
2024-01-25T18:50:16.995Z,6.24
2024-01-25T18:53:07.294Z,6.49
2024-01-25T18:55:58.075Z,6.80
2024-01-25T18:58:51.553Z,5.98
2024-01-25T19:01:42.596Z,5.87
2024-01-25T19:04:35.331Z,6.28
2024-01-25T19:07:26.995Z,6.07
2024-01-25T19:10:17.720Z,6.61
2024-01-25T19:13:07.792Z,6.52
2024-01-25T19:16:00.894Z,6.11
2024-01-25T19:18:51.148Z,5.34
2024-01-25T19:21:41.580Z,5.39
2024-01-25T19:24:31.812Z,5.63
2024-01-25T19:27:21.990Z,5.85
2024-01-25T19:30:13.058Z,5.13
2024-01-25T19:33:06.145Z,4.81
2024-01-25T19:35:56.274Z,5.59
2024-01-25T19:38:46.388Z,5.70
2024-01-25T19:41:36.673Z,6.01
2024-01-25T19:44:26.786Z,6.01
2024-01-25T19:47:16.882Z,6.28
2024-01-25T19:50:11.487Z,5.90
2024-01-25T19:53:01.745Z,5.59
2024-01-25T19:55:51.830Z,5.55
2024-01-25T19:58:42.708Z,5.33
2024-01-25T20:01:33.573Z,4.81
2024-01-25T20:04:24.524Z,5.69
2024-01-25T20:07:18.560Z,5.54
2024-01-25T20:10:10.392Z,5.57
2024-01-25T20:13:00.651Z,6.05
2024-01-25T20:15:51.389Z,6.40
2024-01-25T20:18:41.871Z,6.08
2024-01-25T20:21:32.141Z,5.48
2024-01-25T20:24:25.017Z,6.04
2024-01-25T20:27:15.297Z,5.51
2024-01-25T20:30:05.529Z,6.13
2024-01-25T20:32:55.670Z,6.33
2024-01-25T20:35:45.874Z,6.75
2024-01-25T20:38:36.066Z,6.89
2024-01-25T20:41:28.902Z,6.53
2024-01-25T20:44:19.850Z,6.57
2024-01-25T20:47:10.336Z,6.81
2024-01-25T20:50:00.659Z,6.81
2024-01-25T20:52:50.912Z,7.29
2024-01-25T20:55:42.212Z,6.97
2024-01-25T20:58:37.075Z,6.05
2024-01-25T21:01:28.092Z,5.66
2024-01-25T21:04:18.827Z,4.49
2024-01-25T21:07:10.057Z,5.54
2024-01-25T21:10:00.963Z,4.73
2024-01-25T21:12:51.904Z,4.51
2024-01-25T21:15:45.697Z,4.56
2024-01-25T21:18:36.326Z,6.01
2024-01-25T21:21:26.536Z,6.57
2024-01-25T21:24:16.716Z,5.92
2024-01-25T21:27:07.551Z,6.07
2024-01-25T21:29:59.386Z,7.09
2024-01-25T21:32:52.189Z,6.77
2024-01-25T21:35:43.209Z,5.68
2024-01-25T21:38:33.977Z,4.69
2024-01-25T21:41:24.103Z,4.49
2024-01-25T21:44:14.935Z,4.57
2024-01-25T21:47:06.564Z,5.11
2024-01-25T21:49:59.412Z,5.65
2024-01-25T21:52:49.629Z,6.94
2024-01-25T21:55:41.609Z,7.18
2024-01-25T21:58:31.756Z,6.19
2024-01-25T22:01:22.459Z,5.98
2024-01-25T22:04:13.928Z,6.08
2024-01-25T22:07:07.089Z,6.06
2024-01-25T22:09:57.536Z,5.91
2024-01-25T22:12:47.840Z,5.42
2024-01-25T22:15:37.961Z,5.93
2024-01-25T22:18:28.140Z,6.40
2024-01-25T22:21:19.329Z,5.73
2024-01-25T22:24:12.389Z,5.43
2024-01-25T22:27:02.487Z,6.53
2024-01-25T22:29:52.542Z,6.75
2024-01-25T22:32:42.623Z,7.08
2024-01-25T22:35:32.687Z,6.37
2024-01-25T22:38:22.808Z,5.94
2024-01-25T22:41:15.744Z,5.16
2024-01-25T22:44:05.930Z,5.29
2024-01-25T22:47:02.785Z,5.26
2024-01-25T22:49:56.020Z,6.39
2024-01-25T22:52:46.207Z,6.41
2024-01-25T22:55:36.665Z,7.38
2024-01-25T22:58:29.713Z,7.12
2024-01-25T23:01:19.902Z,7.06
2024-01-25T23:04:10.833Z,6.87
2024-01-25T23:07:01.046Z,7.24
2024-01-25T23:09:52.118Z,6.99
2024-01-25T23:12:42.451Z,6.73
2024-01-25T23:15:35.738Z,6.85
2024-01-25T23:18:25.921Z,7.30
2024-01-25T23:21:16.113Z,6.81
2024-01-25T23:24:07.253Z,5.94
2024-01-25T23:26:57.344Z,5.40
2024-01-25T23:29:47.616Z,6.33
2024-01-25T23:32:40.868Z,6.40
2024-01-25T23:35:31.067Z,5.99
2024-01-25T23:38:21.247Z,6.10
2024-01-25T23:41:11.655Z,6.10
2024-01-25T23:44:01.718Z,5.16
2024-01-25T23:46:52.046Z,5.44
2024-01-25T23:49:45.545Z,5.96
2024-01-25T23:52:36.198Z,6.00
2024-01-25T23:55:26.484Z,6.01
2024-01-25T23:58:16.845Z,4.40
